sensor_id;sensor_type;location;lat;lon;timestamp;P1;durP1;ratioP1;P2;durP2;ratioP2
37455;SDS011;23316;50.718;7.328;2023-09-19T00:01:42;2.72;;;1.30;;
37455;SDS011;23316;50.718;7.328;2023-09-19T00:04:12;3.10;;;1.25;;
37455;SDS011;23316;50.718;7.328;2023-09-19T00:06:40;1.55;;;0.95;;
37455;SDS011;23316;50.718;7.328;2023-09-19T00:09:08;2.80;;;1.40;;
37455;SDS011;23316;50.718;7.328;2023-09-19T00:11:36;3.10;;;1.13;;
37455;SDS011;23316;50.718;7.328;2023-09-19T00:14:04;3.15;;;1.23;;
37455;SDS011;23316;50.718;7.328;2023-09-19T00:16:34;2.38;;;1.30;;
37455;SDS011;23316;50.718;7.328;2023-09-19T00:19:01;4.10;;;1.25;;
37455;SDS011;23316;50.718;7.328;2023-09-19T00:21:35;6.22;;;1.20;;
37455;SDS011;23316;50.718;7.328;2023-09-19T00:24:03;3.13;;;1.00;;
37455;SDS011;23316;50.718;7.328;2023-09-19T00:26:32;1.75;;;1.15;;
37455;SDS011;23316;50.718;7.328;2023-09-19T00:28:59;2.10;;;0.93;;
37455;SDS011;23316;50.718;7.328;2023-09-19T00:31:31;6.05;;;1.15;;
37455;SDS011;23316;50.718;7.328;2023-09-19T00:33:58;2.20;;;1.02;;
37455;SDS011;23316;50.718;7.328;2023-09-19T00:36:29;8.80;;;1.55;;
37455;SDS011;23316;50.718;7.328;2023-09-19T00:38:58;5.55;;;1.63;;
37455;SDS011;23316;50.718;7.328;2023-09-19T00:41:25;2.33;;;1.00;;
37455;SDS011;23316;50.718;7.328;2023-09-19T00:43:55;3.20;;;1.20;;
37455;SDS011;23316;50.718;7.328;2023-09-19T00:46:23;3.13;;;1.05;;
37455;SDS011;23316;50.718;7.328;2023-09-19T00:48:51;3.63;;;1.40;;
37455;SDS011;23316;50.718;7.328;2023-09-19T00:51:18;3.53;;;1.13;;
37455;SDS011;23316;50.718;7.328;2023-09-19T00:53:47;3.85;;;1.25;;
37455;SDS011;23316;50.718;7.328;2023-09-19T00:56:16;2.78;;;1.10;;
37455;SDS011;23316;50.718;7.328;2023-09-19T00:58:44;3.38;;;1.00;;
37455;SDS011;23316;50.718;7.328;2023-09-19T01:01:12;1.88;;;0.90;;
37455;SDS011;23316;50.718;7.328;2023-09-19T01:03:40;3.60;;;1.40;;
37455;SDS011;23316;50.718;7.328;2023-09-19T01:06:08;6.30;;;1.85;;
37455;SDS011;23316;50.718;7.328;2023-09-19T01:08:35;2.75;;;1.15;;
37455;SDS011;23316;50.718;7.328;2023-09-19T01:11:05;7.30;;;1.27;;
37455;SDS011;23316;50.718;7.328;2023-09-19T01:13:42;3.08;;;1.27;;
37455;SDS011;23316;50.718;7.328;2023-09-19T01:16:18;4.20;;;1.20;;
37455;SDS011;23316;50.718;7.328;2023-09-19T01:18:54;2.60;;;1.00;;
37455;SDS011;23316;50.718;7.328;2023-09-19T01:21:29;1.65;;;1.17;;
37455;SDS011;23316;50.718;7.328;2023-09-19T01:24:10;5.40;;;1.45;;
37455;SDS011;23316;50.718;7.328;2023-09-19T01:27:12;4.38;;;1.23;;
37455;SDS011;23316;50.718;7.328;2023-09-19T01:30:02;4.18;;;1.38;;
37455;SDS011;23316;50.718;7.328;2023-09-19T01:32:36;4.43;;;1.55;;
37455;SDS011;23316;50.718;7.328;2023-09-19T01:35:06;8.60;;;1.60;;
37455;SDS011;23316;50.718;7.328;2023-09-19T01:37:38;4.75;;;1.55;;
37455;SDS011;23316;50.718;7.328;2023-09-19T01:40:08;3.45;;;0.98;;
37455;SDS011;23316;50.718;7.328;2023-09-19T01:42:43;6.07;;;1.48;;
37455;SDS011;23316;50.718;7.328;2023-09-19T01:45:18;8.67;;;1.57;;
37455;SDS011;23316;50.718;7.328;2023-09-19T01:47:53;8.20;;;1.40;;
37455;SDS011;23316;50.718;7.328;2023-09-19T01:50:26;4.07;;;1.33;;
37455;SDS011;23316;50.718;7.328;2023-09-19T01:52:59;2.60;;;1.00;;
37455;SDS011;23316;50.718;7.328;2023-09-19T01:55:30;4.78;;;1.23;;
37455;SDS011;23316;50.718;7.328;2023-09-19T01:58:04;5.10;;;1.33;;
37455;SDS011;23316;50.718;7.328;2023-09-19T02:00:36;4.70;;;1.27;;
37455;SDS011;23316;50.718;7.328;2023-09-19T02:03:08;5.45;;;1.60;;
37455;SDS011;23316;50.718;7.328;2023-09-19T02:05:36;4.38;;;1.30;;
37455;SDS011;23316;50.718;7.328;2023-09-19T02:08:05;6.35;;;1.63;;
37455;SDS011;23316;50.718;7.328;2023-09-19T02:10:32;4.47;;;1.30;;
37455;SDS011;23316;50.718;7.328;2023-09-19T02:12:59;5.10;;;1.63;;
37455;SDS011;23316;50.718;7.328;2023-09-19T02:15:29;6.97;;;1.90;;
37455;SDS011;23316;50.718;7.328;2023-09-19T02:18:03;7.72;;;1.85;;
37455;SDS011;23316;50.718;7.328;2023-09-19T02:20:31;4.85;;;1.08;;
37455;SDS011;23316;50.718;7.328;2023-09-19T02:22:58;4.30;;;1.52;;
37455;SDS011;23316;50.718;7.328;2023-09-19T02:25:26;4.25;;;1.33;;
37455;SDS011;23316;50.718;7.328;2023-09-19T02:27:53;10.02;;;2.03;;
37455;SDS011;23316;50.718;7.328;2023-09-19T02:30:24;3.50;;;1.20;;
37455;SDS011;23316;50.718;7.328;2023-09-19T02:32:51;6.97;;;1.50;;
37455;SDS011;23316;50.718;7.328;2023-09-19T02:35:20;4.50;;;1.50;;
37455;SDS011;23316;50.718;7.328;2023-09-19T02:37:48;7.80;;;1.77;;
37455;SDS011;23316;50.718;7.328;2023-09-19T02:40:15;5.05;;;1.38;;
37455;SDS011;23316;50.718;7.328;2023-09-19T02:42:45;5.60;;;1.70;;
37455;SDS011;23316;50.718;7.328;2023-09-19T02:45:14;4.93;;;1.50;;
37455;SDS011;23316;50.718;7.328;2023-09-19T02:47:43;8.27;;;1.58;;
37455;SDS011;23316;50.718;7.328;2023-09-19T02:50:10;6.68;;;1.77;;
37455;SDS011;23316;50.718;7.328;2023-09-19T02:52:42;6.70;;;1.63;;
37455;SDS011;23316;50.718;7.328;2023-09-19T02:55:10;8.55;;;1.73;;
37455;SDS011;23316;50.718;7.328;2023-09-19T02:57:38;6.97;;;2.10;;
37455;SDS011;23316;50.718;7.328;2023-09-19T03:00:09;6.88;;;1.77;;
37455;SDS011;23316;50.718;7.328;2023-09-19T03:02:38;5.00;;;1.30;;
37455;SDS011;23316;50.718;7.328;2023-09-19T03:05:07;11.00;;;2.38;;
37455;SDS011;23316;50.718;7.328;2023-09-19T03:07:37;7.68;;;1.88;;
37455;SDS011;23316;50.718;7.328;2023-09-19T03:10:07;6.68;;;1.70;;
37455;SDS011;23316;50.718;7.328;2023-09-19T03:12:35;8.05;;;1.60;;
37455;SDS011;23316;50.718;7.328;2023-09-19T03:15:06;7.95;;;2.13;;
37455;SDS011;23316;50.718;7.328;2023-09-19T03:17:35;9.98;;;1.98;;
37455;SDS011;23316;50.718;7.328;2023-09-19T03:20:03;5.10;;;1.70;;
37455;SDS011;23316;50.718;7.328;2023-09-19T03:22:34;10.15;;;2.15;;
37455;SDS011;23316;50.718;7.328;2023-09-19T03:25:01;7.38;;;2.15;;
37455;SDS011;23316;50.718;7.328;2023-09-19T03:27:34;8.45;;;1.90;;
37455;SDS011;23316;50.718;7.328;2023-09-19T03:30:02;9.52;;;2.88;;
37455;SDS011;23316;50.718;7.328;2023-09-19T03:32:34;6.28;;;1.77;;
37455;SDS011;23316;50.718;7.328;2023-09-19T03:35:01;7.22;;;1.80;;
37455;SDS011;23316;50.718;7.328;2023-09-19T03:37:30;5.85;;;1.65;;
37455;SDS011;23316;50.718;7.328;2023-09-19T03:39:59;6.90;;;1.52;;
37455;SDS011;23316;50.718;7.328;2023-09-19T03:42:30;6.70;;;1.30;;
37455;SDS011;23316;50.718;7.328;2023-09-19T03:44:59;8.60;;;1.67;;
37455;SDS011;23316;50.718;7.328;2023-09-19T03:47:29;6.88;;;1.52;;
37455;SDS011;23316;50.718;7.328;2023-09-19T03:49:57;6.20;;;1.77;;
37455;SDS011;23316;50.718;7.328;2023-09-19T03:52:25;6.13;;;1.33;;
37455;SDS011;23316;50.718;7.328;2023-09-19T03:54:52;5.53;;;1.80;;
37455;SDS011;23316;50.718;7.328;2023-09-19T03:57:20;8.63;;;1.55;;
37455;SDS011;23316;50.718;7.328;2023-09-19T03:59:48;6.88;;;1.73;;
37455;SDS011;23316;50.718;7.328;2023-09-19T04:02:17;10.60;;;2.30;;
37455;SDS011;23316;50.718;7.328;2023-09-19T04:04:49;7.85;;;2.10;;
37455;SDS011;23316;50.718;7.328;2023-09-19T04:07:17;7.32;;;2.47;;
37455;SDS011;23316;50.718;7.328;2023-09-19T04:09:47;7.47;;;1.52;;
37455;SDS011;23316;50.718;7.328;2023-09-19T04:12:15;4.68;;;1.65;;
37455;SDS011;23316;50.718;7.328;2023-09-19T04:14:43;4.97;;;1.38;;
37455;SDS011;23316;50.718;7.328;2023-09-19T04:17:11;5.60;;;1.75;;
37455;SDS011;23316;50.718;7.328;2023-09-19T04:19:40;4.18;;;1.38;;
37455;SDS011;23316;50.718;7.328;2023-09-19T04:22:07;5.97;;;2.00;;
37455;SDS011;23316;50.718;7.328;2023-09-19T04:24:35;8.85;;;2.00;;
37455;SDS011;23316;50.718;7.328;2023-09-19T04:27:10;6.13;;;1.83;;
37455;SDS011;23316;50.718;7.328;2023-09-19T04:29:40;3.83;;;1.50;;
37455;SDS011;23316;50.718;7.328;2023-09-19T04:32:08;8.60;;;1.83;;
37455;SDS011;23316;50.718;7.328;2023-09-19T04:34:36;7.88;;;1.90;;
37455;SDS011;23316;50.718;7.328;2023-09-19T04:37:05;6.90;;;1.67;;
37455;SDS011;23316;50.718;7.328;2023-09-19T04:39:33;4.03;;;1.42;;
37455;SDS011;23316;50.718;7.328;2023-09-19T04:42:00;7.57;;;1.85;;
37455;SDS011;23316;50.718;7.328;2023-09-19T04:44:29;5.28;;;1.60;;
37455;SDS011;23316;50.718;7.328;2023-09-19T04:46:57;6.43;;;2.08;;
37455;SDS011;23316;50.718;7.328;2023-09-19T04:49:25;5.85;;;1.70;;
37455;SDS011;23316;50.718;7.328;2023-09-19T04:51:52;4.53;;;1.73;;
37455;SDS011;23316;50.718;7.328;2023-09-19T04:54:22;6.82;;;1.52;;
37455;SDS011;23316;50.718;7.328;2023-09-19T04:56:50;7.53;;;2.00;;
37455;SDS011;23316;50.718;7.328;2023-09-19T04:59:17;6.68;;;1.77;;
37455;SDS011;23316;50.718;7.328;2023-09-19T05:01:45;4.70;;;1.60;;
37455;SDS011;23316;50.718;7.328;2023-09-19T05:04:12;7.50;;;1.30;;
37455;SDS011;23316;50.718;7.328;2023-09-19T05:06:40;4.80;;;1.50;;
37455;SDS011;23316;50.718;7.328;2023-09-19T05:09:07;7.57;;;1.73;;
37455;SDS011;23316;50.718;7.328;2023-09-19T05:11:37;11.65;;;2.13;;
37455;SDS011;23316;50.718;7.328;2023-09-19T05:14:04;4.30;;;1.50;;
37455;SDS011;23316;50.718;7.328;2023-09-19T05:16:32;4.45;;;1.55;;
37455;SDS011;23316;50.718;7.328;2023-09-19T05:18:59;5.03;;;1.55;;
37455;SDS011;23316;50.718;7.328;2023-09-19T05:21:27;6.22;;;1.55;;
37455;SDS011;23316;50.718;7.328;2023-09-19T05:23:55;4.10;;;1.40;;
37455;SDS011;23316;50.718;7.328;2023-09-19T05:26:23;6.10;;;1.70;;
37455;SDS011;23316;50.718;7.328;2023-09-19T05:28:51;6.38;;;1.70;;
37455;SDS011;23316;50.718;7.328;2023-09-19T05:31:19;6.68;;;1.75;;
37455;SDS011;23316;50.718;7.328;2023-09-19T05:33:46;7.65;;;1.73;;
37455;SDS011;23316;50.718;7.328;2023-09-19T05:36:15;6.72;;;1.90;;
37455;SDS011;23316;50.718;7.328;2023-09-19T05:38:43;4.97;;;1.95;;
37455;SDS011;23316;50.718;7.328;2023-09-19T05:41:10;7.95;;;1.73;;
37455;SDS011;23316;50.718;7.328;2023-09-19T05:43:39;8.73;;;2.28;;
37455;SDS011;23316;50.718;7.328;2023-09-19T05:46:07;6.80;;;1.75;;
37455;SDS011;23316;50.718;7.328;2023-09-19T05:48:35;13.57;;;2.38;;
37455;SDS011;23316;50.718;7.328;2023-09-19T05:51:05;6.75;;;2.13;;
37455;SDS011;23316;50.718;7.328;2023-09-19T05:53:32;4.70;;;1.70;;
37455;SDS011;23316;50.718;7.328;2023-09-19T05:55:59;5.80;;;1.88;;
37455;SDS011;23316;50.718;7.328;2023-09-19T05:58:26;6.30;;;1.70;;
37455;SDS011;23316;50.718;7.328;2023-09-19T06:00:54;7.10;;;1.80;;
37455;SDS011;23316;50.718;7.328;2023-09-19T06:03:22;10.45;;;2.15;;
37455;SDS011;23316;50.718;7.328;2023-09-19T06:05:50;10.52;;;2.28;;
37455;SDS011;23316;50.718;7.328;2023-09-19T06:08:18;7.40;;;2.50;;
37455;SDS011;23316;50.718;7.328;2023-09-19T06:10:46;6.07;;;1.73;;
37455;SDS011;23316;50.718;7.328;2023-09-19T06:13:14;6.43;;;1.80;;
37455;SDS011;23316;50.718;7.328;2023-09-19T06:15:41;9.73;;;2.38;;
37455;SDS011;23316;50.718;7.328;2023-09-19T06:18:10;6.40;;;1.58;;
37455;SDS011;23316;50.718;7.328;2023-09-19T06:20:42;6.07;;;1.73;;
37455;SDS011;23316;50.718;7.328;2023-09-19T06:23:10;11.10;;;1.77;;
37455;SDS011;23316;50.718;7.328;2023-09-19T06:25:37;9.73;;;2.05;;
37455;SDS011;23316;50.718;7.328;2023-09-19T06:28:04;6.95;;;2.22;;
37455;SDS011;23316;50.718;7.328;2023-09-19T06:30:33;6.63;;;1.77;;
37455;SDS011;23316;50.718;7.328;2023-09-19T06:33:01;12.32;;;2.45;;
37455;SDS011;23316;50.718;7.328;2023-09-19T06:35:30;8.70;;;2.38;;
37455;SDS011;23316;50.718;7.328;2023-09-19T06:38:03;8.38;;;2.30;;
37455;SDS011;23316;50.718;7.328;2023-09-19T06:40:33;8.05;;;1.95;;
37455;SDS011;23316;50.718;7.328;2023-09-19T06:43:01;7.43;;;2.00;;
37455;SDS011;23316;50.718;7.328;2023-09-19T06:45:29;6.65;;;1.83;;
37455;SDS011;23316;50.718;7.328;2023-09-19T06:47:57;8.70;;;1.95;;
37455;SDS011;23316;50.718;7.328;2023-09-19T06:50:25;11.90;;;2.60;;
37455;SDS011;23316;50.718;7.328;2023-09-19T06:52:53;9.05;;;2.22;;
37455;SDS011;23316;50.718;7.328;2023-09-19T06:55:24;7.95;;;2.20;;
37455;SDS011;23316;50.718;7.328;2023-09-19T06:57:53;7.93;;;1.85;;
37455;SDS011;23316;50.718;7.328;2023-09-19T07:00:20;12.35;;;2.35;;
37455;SDS011;23316;50.718;7.328;2023-09-19T07:02:55;8.48;;;2.25;;
37455;SDS011;23316;50.718;7.328;2023-09-19T07:05:24;11.75;;;2.20;;
37455;SDS011;23316;50.718;7.328;2023-09-19T07:07:53;12.07;;;2.05;;
37455;SDS011;23316;50.718;7.328;2023-09-19T07:10:21;9.25;;;2.45;;
37455;SDS011;23316;50.718;7.328;2023-09-19T07:12:55;10.27;;;2.42;;
37455;SDS011;23316;50.718;7.328;2023-09-19T07:15:23;9.07;;;2.67;;
37455;SDS011;23316;50.718;7.328;2023-09-19T07:17:51;6.32;;;1.73;;
37455;SDS011;23316;50.718;7.328;2023-09-19T07:20:19;13.40;;;2.00;;
37455;SDS011;23316;50.718;7.328;2023-09-19T07:22:47;15.73;;;2.40;;
37455;SDS011;23316;50.718;7.328;2023-09-19T07:25:16;8.13;;;2.20;;
37455;SDS011;23316;50.718;7.328;2023-09-19T07:27:44;8.63;;;2.08;;
37455;SDS011;23316;50.718;7.328;2023-09-19T07:30:13;7.97;;;2.10;;
37455;SDS011;23316;50.718;7.328;2023-09-19T07:32:40;9.13;;;2.15;;
37455;SDS011;23316;50.718;7.328;2023-09-19T07:35:08;7.97;;;2.33;;
37455;SDS011;23316;50.718;7.328;2023-09-19T07:37:35;8.18;;;2.35;;
37455;SDS011;23316;50.718;7.328;2023-09-19T07:40:03;7.10;;;2.25;;
37455;SDS011;23316;50.718;7.328;2023-09-19T07:42:32;11.40;;;2.28;;
37455;SDS011;23316;50.718;7.328;2023-09-19T07:45:00;7.13;;;1.80;;
37455;SDS011;23316;50.718;7.328;2023-09-19T07:47:29;10.18;;;2.30;;
37455;SDS011;23316;50.718;7.328;2023-09-19T07:49:57;10.35;;;1.92;;
37455;SDS011;23316;50.718;7.328;2023-09-19T07:52:27;10.82;;;2.45;;
37455;SDS011;23316;50.718;7.328;2023-09-19T07:54:54;12.25;;;2.72;;
37455;SDS011;23316;50.718;7.328;2023-09-19T07:57:22;10.20;;;2.85;;
37455;SDS011;23316;50.718;7.328;2023-09-19T07:59:50;12.88;;;2.20;;
37455;SDS011;23316;50.718;7.328;2023-09-19T08:02:17;9.38;;;2.10;;
37455;SDS011;23316;50.718;7.328;2023-09-19T08:04:47;10.90;;;2.90;;
37455;SDS011;23316;50.718;7.328;2023-09-19T08:07:14;10.73;;;2.20;;
37455;SDS011;23316;50.718;7.328;2023-09-19T08:09:41;9.80;;;2.28;;
37455;SDS011;23316;50.718;7.328;2023-09-19T08:12:11;6.40;;;2.08;;
37455;SDS011;23316;50.718;7.328;2023-09-19T08:14:40;10.25;;;2.78;;
37455;SDS011;23316;50.718;7.328;2023-09-19T08:17:07;11.85;;;2.65;;
37455;SDS011;23316;50.718;7.328;2023-09-19T08:19:35;5.45;;;1.70;;
37455;SDS011;23316;50.718;7.328;2023-09-19T08:22:03;10.18;;;1.95;;
37455;SDS011;23316;50.718;7.328;2023-09-19T08:24:31;11.50;;;2.40;;
37455;SDS011;23316;50.718;7.328;2023-09-19T08:26:58;9.95;;;2.17;;
37455;SDS011;23316;50.718;7.328;2023-09-19T08:29:30;7.20;;;2.20;;
37455;SDS011;23316;50.718;7.328;2023-09-19T08:31:58;9.77;;;2.45;;
37455;SDS011;23316;50.718;7.328;2023-09-19T08:34:25;7.13;;;1.95;;
37455;SDS011;23316;50.718;7.328;2023-09-19T08:36:53;6.13;;;1.77;;
37455;SDS011;23316;50.718;7.328;2023-09-19T08:39:23;9.35;;;2.30;;
37455;SDS011;23316;50.718;7.328;2023-09-19T08:41:56;9.65;;;2.22;;
37455;SDS011;23316;50.718;7.328;2023-09-19T08:44:24;6.60;;;2.28;;
37455;SDS011;23316;50.718;7.328;2023-09-19T08:46:54;8.93;;;2.25;;
37455;SDS011;23316;50.718;7.328;2023-09-19T08:49:24;6.18;;;2.03;;
37455;SDS011;23316;50.718;7.328;2023-09-19T08:52:01;8.07;;;1.88;;
37455;SDS011;23316;50.718;7.328;2023-09-19T08:54:37;8.45;;;2.13;;
37455;SDS011;23316;50.718;7.328;2023-09-19T08:57:07;8.85;;;2.17;;
37455;SDS011;23316;50.718;7.328;2023-09-19T08:59:37;9.07;;;2.40;;
37455;SDS011;23316;50.718;7.328;2023-09-19T09:02:08;6.20;;;2.17;;
37455;SDS011;23316;50.718;7.328;2023-09-19T09:04:38;8.10;;;2.13;;
37455;SDS011;23316;50.718;7.328;2023-09-19T09:07:09;10.15;;;2.22;;
37455;SDS011;23316;50.718;7.328;2023-09-19T09:09:39;11.15;;;2.58;;
37455;SDS011;23316;50.718;7.328;2023-09-19T09:12:08;8.43;;;2.20;;
37455;SDS011;23316;50.718;7.328;2023-09-19T09:14:39;9.43;;;1.98;;
37455;SDS011;23316;50.718;7.328;2023-09-19T09:17:06;10.88;;;2.42;;
37455;SDS011;23316;50.718;7.328;2023-09-19T09:19:34;8.63;;;2.60;;
37455;SDS011;23316;50.718;7.328;2023-09-19T09:22:06;9.48;;;2.35;;
37455;SDS011;23316;50.718;7.328;2023-09-19T09:24:34;9.85;;;2.33;;
37455;SDS011;23316;50.718;7.328;2023-09-19T09:27:05;8.63;;;2.30;;
37455;SDS011;23316;50.718;7.328;2023-09-19T09:29:43;9.68;;;2.20;;
37455;SDS011;23316;50.718;7.328;2023-09-19T09:32:18;8.63;;;2.55;;
37455;SDS011;23316;50.718;7.328;2023-09-19T09:34:47;6.50;;;2.05;;
37455;SDS011;23316;50.718;7.328;2023-09-19T09:37:19;6.22;;;1.95;;
37455;SDS011;23316;50.718;7.328;2023-09-19T09:39:51;6.00;;;1.80;;
37455;SDS011;23316;50.718;7.328;2023-09-19T09:42:32;7.70;;;2.70;;
37455;SDS011;23316;50.718;7.328;2023-09-19T09:45:17;9.85;;;2.03;;
37455;SDS011;23316;50.718;7.328;2023-09-19T09:47:54;9.57;;;2.17;;
37455;SDS011;23316;50.718;7.328;2023-09-19T09:50:25;7.47;;;1.95;;
37455;SDS011;23316;50.718;7.328;2023-09-19T09:52:55;11.68;;;2.28;;
37455;SDS011;23316;50.718;7.328;2023-09-19T09:55:36;7.28;;;2.35;;
37455;SDS011;23316;50.718;7.328;2023-09-19T09:58:25;7.25;;;2.42;;
37455;SDS011;23316;50.718;7.328;2023-09-19T10:00:55;7.93;;;2.10;;
37455;SDS011;23316;50.718;7.328;2023-09-19T10:03:31;9.80;;;2.88;;
37455;SDS011;23316;50.718;7.328;2023-09-19T10:06:04;6.55;;;1.95;;
37455;SDS011;23316;50.718;7.328;2023-09-19T10:08:38;7.38;;;2.17;;
37455;SDS011;23316;50.718;7.328;2023-09-19T10:11:17;8.95;;;2.97;;
37455;SDS011;23316;50.718;7.328;2023-09-19T10:13:46;8.30;;;2.10;;
37455;SDS011;23316;50.718;7.328;2023-09-19T10:16:14;12.05;;;2.50;;
37455;SDS011;23316;50.718;7.328;2023-09-19T10:18:44;7.53;;;1.85;;
37455;SDS011;23316;50.718;7.328;2023-09-19T10:21:15;6.88;;;1.95;;
37455;SDS011;23316;50.718;7.328;2023-09-19T10:23:50;9.48;;;2.25;;
37455;SDS011;23316;50.718;7.328;2023-09-19T10:26:22;9.60;;;1.75;;
37455;SDS011;23316;50.718;7.328;2023-09-19T10:28:53;5.93;;;1.42;;
37455;SDS011;23316;50.718;7.328;2023-09-19T10:31:21;6.72;;;1.92;;
37455;SDS011;23316;50.718;7.328;2023-09-19T10:33:51;6.85;;;2.17;;
37455;SDS011;23316;50.718;7.328;2023-09-19T10:36:21;9.80;;;2.25;;
37455;SDS011;23316;50.718;7.328;2023-09-19T10:38:51;10.25;;;2.08;;
37455;SDS011;23316;50.718;7.328;2023-09-19T10:41:21;6.15;;;1.85;;
37455;SDS011;23316;50.718;7.328;2023-09-19T10:43:49;8.65;;;1.77;;
37455;SDS011;23316;50.718;7.328;2023-09-19T10:46:21;6.38;;;1.95;;
37455;SDS011;23316;50.718;7.328;2023-09-19T10:48:48;6.28;;;2.13;;
37455;SDS011;23316;50.718;7.328;2023-09-19T10:51:21;9.45;;;1.90;;
37455;SDS011;23316;50.718;7.328;2023-09-19T10:53:51;5.10;;;2.00;;
37455;SDS011;23316;50.718;7.328;2023-09-19T10:56:23;4.97;;;1.58;;
37455;SDS011;23316;50.718;7.328;2023-09-19T10:59:06;6.07;;;1.85;;
37455;SDS011;23316;50.718;7.328;2023-09-19T11:01:45;4.70;;;1.58;;
37455;SDS011;23316;50.718;7.328;2023-09-19T11:04:21;9.95;;;2.22;;
37455;SDS011;23316;50.718;7.328;2023-09-19T11:06:59;8.25;;;1.70;;
37455;SDS011;23316;50.718;7.328;2023-09-19T11:12:12;7.03;;;2.17;;
37455;SDS011;23316;50.718;7.328;2023-09-19T11:14:56;9.38;;;2.22;;
37455;SDS011;23316;50.718;7.328;2023-09-19T11:20:21;8.38;;;1.67;;
37455;SDS011;23316;50.718;7.328;2023-09-19T11:23:21;5.20;;;1.85;;
37455;SDS011;23316;50.718;7.328;2023-09-19T11:25:52;5.18;;;1.67;;
37455;SDS011;23316;50.718;7.328;2023-09-19T11:28:30;8.25;;;2.28;;
37455;SDS011;23316;50.718;7.328;2023-09-19T11:30:58;10.55;;;2.50;;
37455;SDS011;23316;50.718;7.328;2023-09-19T11:33:46;5.50;;;1.50;;
37455;SDS011;23316;50.718;7.328;2023-09-19T11:36:15;6.45;;;2.10;;
37455;SDS011;23316;50.718;7.328;2023-09-19T11:38:57;7.78;;;2.25;;
37455;SDS011;23316;50.718;7.328;2023-09-19T11:41:39;6.70;;;2.20;;
37455;SDS011;23316;50.718;7.328;2023-09-19T11:47:05;6.00;;;2.28;;
37455;SDS011;23316;50.718;7.328;2023-09-19T11:49:34;7.30;;;2.05;;
37455;SDS011;23316;50.718;7.328;2023-09-19T11:52:06;9.77;;;2.17;;
37455;SDS011;23316;50.718;7.328;2023-09-19T11:54:34;6.20;;;2.28;;
37455;SDS011;23316;50.718;7.328;2023-09-19T11:57:05;7.15;;;2.03;;
37455;SDS011;23316;50.718;7.328;2023-09-19T11:59:37;15.90;;;2.78;;
37455;SDS011;23316;50.718;7.328;2023-09-19T12:02:07;6.38;;;1.98;;
37455;SDS011;23316;50.718;7.328;2023-09-19T12:04:38;9.75;;;2.75;;
37455;SDS011;23316;50.718;7.328;2023-09-19T12:07:09;6.90;;;1.90;;
37455;SDS011;23316;50.718;7.328;2023-09-19T12:09:41;11.10;;;2.70;;
37455;SDS011;23316;50.718;7.328;2023-09-19T12:12:09;8.70;;;2.28;;
37455;SDS011;23316;50.718;7.328;2023-09-19T12:14:38;8.35;;;2.08;;
37455;SDS011;23316;50.718;7.328;2023-09-19T12:17:10;6.22;;;1.90;;
37455;SDS011;23316;50.718;7.328;2023-09-19T12:19:38;5.30;;;1.60;;
37455;SDS011;23316;50.718;7.328;2023-09-19T12:22:16;7.25;;;2.00;;
37455;SDS011;23316;50.718;7.328;2023-09-19T12:24:44;6.18;;;1.95;;
37455;SDS011;23316;50.718;7.328;2023-09-19T12:27:12;5.20;;;1.58;;
37455;SDS011;23316;50.718;7.328;2023-09-19T12:29:43;7.40;;;2.25;;
37455;SDS011;23316;50.718;7.328;2023-09-19T12:32:12;6.22;;;1.92;;
37455;SDS011;23316;50.718;7.328;2023-09-19T12:34:42;7.15;;;2.17;;
37455;SDS011;23316;50.718;7.328;2023-09-19T12:37:18;8.45;;;2.38;;
37455;SDS011;23316;50.718;7.328;2023-09-19T12:39:48;7.35;;;2.30;;
37455;SDS011;23316;50.718;7.328;2023-09-19T12:42:18;6.55;;;1.65;;
37455;SDS011;23316;50.718;7.328;2023-09-19T12:44:48;5.60;;;1.77;;
37455;SDS011;23316;50.718;7.328;2023-09-19T12:47:22;8.43;;;2.38;;
37455;SDS011;23316;50.718;7.328;2023-09-19T12:52:41;6.88;;;2.03;;
37455;SDS011;23316;50.718;7.328;2023-09-19T12:55:20;6.07;;;1.83;;
37455;SDS011;23316;50.718;7.328;2023-09-19T12:57:59;5.53;;;1.77;;
37455;SDS011;23316;50.718;7.328;2023-09-19T13:00:35;6.80;;;1.77;;
37455;SDS011;23316;50.718;7.328;2023-09-19T13:03:18;4.85;;;1.60;;
37455;SDS011;23316;50.718;7.328;2023-09-19T13:05:52;5.30;;;1.60;;
37455;SDS011;23316;50.718;7.328;2023-09-19T13:08:21;8.32;;;1.70;;
37455;SDS011;23316;50.718;7.328;2023-09-19T13:11:01;3.10;;;1.30;;
37455;SDS011;23316;50.718;7.328;2023-09-19T13:13:28;9.98;;;1.90;;
37455;SDS011;23316;50.718;7.328;2023-09-19T13:15:55;5.57;;;1.60;;
37455;SDS011;23316;50.718;7.328;2023-09-19T13:18:25;4.93;;;1.77;;
37455;SDS011;23316;50.718;7.328;2023-09-19T13:21:05;5.22;;;1.73;;
37455;SDS011;23316;50.718;7.328;2023-09-19T13:23:34;5.18;;;1.48;;
37455;SDS011;23316;50.718;7.328;2023-09-19T13:26:02;6.00;;;1.52;;
37455;SDS011;23316;50.718;7.328;2023-09-19T13:28:31;5.18;;;1.50;;
37455;SDS011;23316;50.718;7.328;2023-09-19T13:30:59;3.65;;;1.35;;
37455;SDS011;23316;50.718;7.328;2023-09-19T13:33:28;4.25;;;1.17;;
37455;SDS011;23316;50.718;7.328;2023-09-19T13:35:56;6.65;;;1.40;;
37455;SDS011;23316;50.718;7.328;2023-09-19T13:38:23;8.18;;;1.35;;
37455;SDS011;23316;50.718;7.328;2023-09-19T13:40:51;4.32;;;1.27;;
37455;SDS011;23316;50.718;7.328;2023-09-19T13:43:19;5.18;;;1.58;;
37455;SDS011;23316;50.718;7.328;2023-09-19T13:45:47;5.63;;;1.20;;
37455;SDS011;23316;50.718;7.328;2023-09-19T13:48:15;4.63;;;1.30;;
37455;SDS011;23316;50.718;7.328;2023-09-19T13:50:47;4.65;;;1.38;;
37455;SDS011;23316;50.718;7.328;2023-09-19T13:53:15;3.80;;;1.30;;
37455;SDS011;23316;50.718;7.328;2023-09-19T13:55:43;4.97;;;1.38;;
37455;SDS011;23316;50.718;7.328;2023-09-19T13:58:10;4.40;;;1.30;;
37455;SDS011;23316;50.718;7.328;2023-09-19T14:00:38;6.07;;;1.40;;
37455;SDS011;23316;50.718;7.328;2023-09-19T14:03:05;3.90;;;1.20;;
37455;SDS011;23316;50.718;7.328;2023-09-19T14:05:33;4.25;;;1.42;;
37455;SDS011;23316;50.718;7.328;2023-09-19T14:08:01;3.78;;;1.15;;
37455;SDS011;23316;50.718;7.328;2023-09-19T14:10:29;5.40;;;1.52;;
37455;SDS011;23316;50.718;7.328;2023-09-19T14:12:57;4.85;;;1.45;;
37455;SDS011;23316;50.718;7.328;2023-09-19T14:15:25;4.28;;;1.48;;
37455;SDS011;23316;50.718;7.328;2023-09-19T14:17:56;4.28;;;1.30;;
37455;SDS011;23316;50.718;7.328;2023-09-19T14:20:25;8.80;;;1.55;;
37455;SDS011;23316;50.718;7.328;2023-09-19T14:22:53;5.30;;;1.50;;
37455;SDS011;23316;50.718;7.328;2023-09-19T14:25:22;5.88;;;1.90;;
37455;SDS011;23316;50.718;7.328;2023-09-19T14:27:50;4.65;;;1.48;;
37455;SDS011;23316;50.718;7.328;2023-09-19T14:30:17;3.75;;;1.20;;
37455;SDS011;23316;50.718;7.328;2023-09-19T14:32:44;7.15;;;1.30;;
37455;SDS011;23316;50.718;7.328;2023-09-19T14:35:12;5.07;;;1.17;;
37455;SDS011;23316;50.718;7.328;2023-09-19T14:37:39;8.23;;;1.73;;
37455;SDS011;23316;50.718;7.328;2023-09-19T14:40:07;4.55;;;1.20;;
37455;SDS011;23316;50.718;7.328;2023-09-19T14:42:38;3.05;;;1.00;;
37455;SDS011;23316;50.718;7.328;2023-09-19T14:45:06;3.35;;;0.95;;
37455;SDS011;23316;50.718;7.328;2023-09-19T14:47:35;4.72;;;1.20;;
37455;SDS011;23316;50.718;7.328;2023-09-19T14:50:03;3.88;;;1.38;;
37455;SDS011;23316;50.718;7.328;2023-09-19T14:52:32;3.45;;;1.25;;
37455;SDS011;23316;50.718;7.328;2023-09-19T14:54:59;4.97;;;1.42;;
37455;SDS011;23316;50.718;7.328;2023-09-19T14:57:27;3.10;;;1.20;;
37455;SDS011;23316;50.718;7.328;2023-09-19T14:59:56;4.63;;;1.40;;
37455;SDS011;23316;50.718;7.328;2023-09-19T15:02:23;4.55;;;1.30;;
37455;SDS011;23316;50.718;7.328;2023-09-19T15:04:51;4.57;;;1.33;;
37455;SDS011;23316;50.718;7.328;2023-09-19T15:07:18;4.65;;;1.60;;
37455;SDS011;23316;50.718;7.328;2023-09-19T15:09:46;5.47;;;1.40;;
37455;SDS011;23316;50.718;7.328;2023-09-19T15:12:13;3.83;;;1.17;;
37455;SDS011;23316;50.718;7.328;2023-09-19T15:14:40;4.40;;;1.25;;